Time;durP1;ratioP1;P1;durP2;ratioP2;P2;SDS_P1;SDS_P2;PMS_P1;PMS_P2;Temp;Humidity;BMP_temperature;BMP_pressure;BME280_temperature;BME280_humidity;BME280_pressure;Samples;Min_cycle;Max_cycle;Signal;HPM_P1;HPM_P2
2022/08/29 00:01:42;;;;;;;5.80;5.40;;;21.30;38.30;;;;;;10541549;28;20246;-77
2022/08/29 00:06:45;;;;;;;6.77;6.20;;;21.30;38.10;;;;;;10540959;28;20226;-77
2022/08/29 00:11:50;;;;;;;5.50;5.10;;;21.30;38.10;;;;;;10540747;28;20617;-77
2022/08/29 00:16:53;;;;;;;5.47;5.07;;;21.10;38.30;;;;;;10539884;28;20228;-74
2022/08/29 00:21:57;;;;;;;5.97;5.37;;;21.10;38.30;;;;;;10558213;28;20610;-76
2022/08/29 00:27:02;;;;;;;5.93;5.43;;;21.00;38.40;;;;;;10560972;28;20612;-75
2022/08/29 00:32:05;;;;;;;6.27;5.07;;;21.00;38.80;;;;;;10546759;28;20227;-76
2022/08/29 00:37:08;;;;;;;5.60;5.20;;;21.00;38.50;;;;;;10555410;28;20232;-75
2022/08/29 00:42:13;;;;;;;5.47;5.07;;;21.00;38.30;;;;;;10552871;28;20303;-76
2022/08/29 00:47:21;;;;;;;4.90;4.50;;;21.00;38.70;;;;;;10553711;28;20233;-76
2022/08/29 00:52:30;;;;;;;5.17;4.77;;;20.90;38.70;;;;;;10552494;28;20244;-75
2022/08/29 00:57:35;;;;;;;5.60;5.20;;;21.00;38.90;;;;;;10547385;28;20233;-78
2022/08/29 01:02:40;;;;;;;4.87;4.33;;;20.90;38.40;;;;;;10581467;28;20249;-77
2022/08/29 01:07:44;;;;;;;4.87;4.57;;;20.90;38.20;;;;;;10579969;28;20237;-76
2022/08/29 01:12:49;;;;;;;5.60;5.10;;;20.70;38.40;;;;;;10544848;28;20242;-76
2022/08/29 01:17:52;;;;;;;5.17;4.77;;;20.70;38.90;;;;;;10546648;28;20591;-76
2022/08/29 01:23:02;;;;;;;6.47;5.13;;;20.60;38.70;;;;;;10551340;28;20242;-76
2022/08/29 01:28:11;;;;;;;5.03;4.63;;;20.60;39.30;;;;;;10550830;28;20595;-76
2022/08/29 01:33:15;;;;;;;5.23;4.90;;;20.60;39.30;;;;;;10550738;28;20235;-76
2022/08/29 01:38:26;;;;;;;5.63;5.23;;;20.60;39.60;;;;;;10550806;28;20228;-76
2022/08/29 01:43:31;;;;;;;5.47;5.07;;;20.60;38.70;;;;;;10548269;28;20232;-75
2022/08/29 01:48:38;;;;;;;5.83;5.17;;;20.50;39.00;;;;;;10548247;28;20223;-75
2022/08/29 01:53:42;;;;;;;5.47;5.03;;;20.40;39.20;;;;;;10552003;28;21051;-76
2022/08/29 01:58:48;;;;;;;5.23;4.83;;;20.40;38.90;;;;;;10550540;28;20237;-77
2022/08/29 02:03:52;;;;;;;5.93;5.43;;;20.40;39.20;;;;;;10552316;28;20224;-76
2022/08/29 02:08:55;;;;;;;5.47;5.07;;;20.30;39.00;;;;;;10557778;28;20228;-78
2022/08/29 02:14:00;;;;;;;5.60;5.20;;;20.30;38.80;;;;;;10585769;28;20834;-78
2022/08/29 02:19:04;;;;;;;5.47;4.97;;;20.30;39.20;;;;;;10582120;28;20222;-78
2022/08/29 02:24:08;;;;;;;5.20;4.70;;;20.20;38.90;;;;;;10542843;28;20234;-78
2022/08/29 02:29:29;;;;;;;4.30;3.83;;;20.20;38.90;;;;;;10558401;28;20237;-76
2022/08/29 02:34:42;;;;;;;5.50;5.10;;;20.10;39.10;;;;;;10544734;28;20235;-77
2022/08/29 02:39:49;;;;;;;4.77;4.33;;;20.10;39.00;;;;;;10537519;28;20246;-77
2022/08/29 02:44:54;;;;;;;3.90;3.70;;;20.10;38.80;;;;;;10539491;28;20236;-77
2022/08/29 02:49:57;;;;;;;4.23;3.93;;;20.10;38.90;;;;;;10546283;28;20258;-78
2022/08/29 02:55:00;;;;;;;5.10;4.70;;;20.00;38.90;;;;;;10545666;28;20245;-77
2022/08/29 03:00:09;;;;;;;4.10;3.80;;;20.00;38.90;;;;;;10546530;28;20242;-77
2022/08/29 03:05:12;;;;;;;4.30;4.00;;;19.90;39.10;;;;;;10554027;28;20229;-76
2022/08/29 03:10:15;;;;;;;4.73;4.33;;;19.90;39.10;;;;;;10546130;28;20223;-76
2022/08/29 03:15:21;;;;;;;4.67;4.37;;;19.80;39.00;;;;;;10572390;28;20261;-76
2022/08/29 03:20:25;;;;;;;4.53;4.20;;;19.80;39.30;;;;;;10547483;28;20227;-76
2022/08/29 03:25:28;;;;;;;5.57;5.07;;;19.80;39.20;;;;;;10552321;28;20233;-77
2022/08/29 03:30:33;;;;;;;5.00;4.60;;;19.80;39.00;;;;;;10550502;28;20652;-76
2022/08/29 03:35:36;;;;;;;5.73;5.00;;;19.70;39.70;;;;;;10576182;28;20235;-76
2022/08/29 03:40:40;;;;;;;5.13;4.63;;;19.60;39.10;;;;;;10571836;28;20227;-77
2022/08/29 03:45:45;;;;;;;5.20;4.80;;;19.50;39.20;;;;;;10540810;28;20263;-77
2022/08/29 03:50:48;;;;;;;4.80;4.50;;;19.50;39.40;;;;;;10545535;28;20239;-77
2022/08/29 03:55:58;;;;;;;4.37;4.03;;;19.50;39.10;;;;;;10545670;28;20236;-76
2022/08/29 04:01:02;;;;;;;5.73;5.13;;;19.40;39.10;;;;;;10549861;28;20732;-77
2022/08/29 04:06:06;;;;;;;5.20;4.67;;;19.40;39.90;;;;;;10541001;28;20222;-77
2022/08/29 04:11:10;;;;;;;5.40;4.90;;;19.30;39.40;;;;;;10556437;28;20223;-76
2022/08/29 04:16:16;;;;;;;5.43;5.03;;;19.30;39.70;;;;;;10554305;28;20219;-77
2022/08/29 04:21:20;;;;;;;9.30;5.50;;;19.20;40.20;;;;;;10540428;28;20239;-78
2022/08/29 04:26:24;;;;;;;5.63;5.13;;;19.20;39.70;;;;;;10539502;28;20232;-77
2022/08/29 04:31:42;;;;;;;4.50;4.20;;;19.20;40.00;;;;;;10539763;28;20764;-78
2022/08/29 04:36:47;;;;;;;5.80;5.30;;;19.20;40.40;;;;;;10536288;28;20825;-75
2022/08/29 04:41:50;;;;;;;6.53;5.70;;;19.10;40.30;;;;;;10537349;28;20599;-77
2022/08/29 04:46:54;;;;;;;5.83;5.30;;;19.10;40.10;;;;;;10532904;28;20219;-77
2022/08/29 04:51:58;;;;;;;5.27;4.87;;;19.00;40.60;;;;;;10531482;28;20243;-77
2022/08/29 04:57:02;;;;;;;5.20;4.80;;;18.90;40.50;;;;;;10531288;28;20227;-77
2022/08/29 05:02:08;;;;;;;5.67;4.90;;;18.90;40.80;;;;;;10531662;28;20280;-77
2022/08/29 05:07:11;;;;;;;6.60;6.00;;;19.00;41.50;;;;;;10531487;28;20231;-77
2022/08/29 05:12:14;;;;;;;6.50;5.93;;;19.00;41.30;;;;;;10532007;28;20236;-76
2022/08/29 05:17:19;;;;;;;7.73;6.93;;;19.10;41.40;;;;;;10532430;28;20699;-77
2022/08/29 05:22:22;;;;;;;6.40;5.77;;;19.10;42.00;;;;;;10532525;28;20227;-77
2022/08/29 05:27:26;;;;;;;8.77;7.50;;;19.20;41.70;;;;;;10541003;28;20714;-77
2022/08/29 05:32:30;;;;;;;14.30;9.00;;;19.20;41.80;;;;;;10544609;28;20245;-79
2022/08/29 05:37:33;;;;;;;14.47;10.07;;;19.20;42.60;;;;;;10546120;28;20707;-79
2022/08/29 05:42:36;;;;;;;15.27;10.03;;;19.30;42.40;;;;;;10545212;28;20224;-78
2022/08/29 05:47:41;;;;;;;12.30;9.90;;;19.30;42.70;;;;;;10545087;28;20235;-77
2022/08/29 05:52:45;;;;;;;11.73;9.73;;;19.30;43.60;;;;;;10546288;28;20596;-77
2022/08/29 05:57:50;;;;;;;17.30;12.10;;;19.40;43.00;;;;;;10545228;28;20230;-77
2022/08/29 06:02:55;;;;;;;14.30;10.83;;;19.40;43.30;;;;;;10546970;28;20228;-78
2022/08/29 06:07:58;;;;;;;16.53;13.23;;;19.50;44.00;;;;;;10546476;28;20223;-78
2022/08/29 06:13:01;;;;;;;18.80;12.97;;;19.50;43.90;;;;;;10545568;28;20241;-78
2022/08/29 06:18:06;;;;;;;12.33;11.23;;;19.60;43.90;;;;;;10547205;28;20224;-78
2022/08/29 06:23:09;;;;;;;11.93;10.93;;;19.70;44.70;;;;;;10543538;28;20227;-77
2022/08/29 06:28:13;;;;;;;18.83;13.23;;;19.70;44.10;;;;;;10544847;28;20796;-77
2022/08/29 06:33:27;;;;;;;14.03;12.60;;;19.80;44.40;;;;;;10544554;28;20233;-76
2022/08/29 06:38:30;;;;;;;13.70;12.27;;;19.90;45.20;;;;;;10540234;28;20817;-76
2022/08/29 06:43:34;;;;;;;21.07;11.57;;;20.00;44.60;;;;;;10541112;28;20798;-77
2022/08/29 06:48:39;;;;;;;14.53;12.43;;;20.00;44.70;;;;;;10540073;28;20234;-77
2022/08/29 06:53:42;;;;;;;17.80;11.77;;;20.10;45.50;;;;;;10540113;28;20228;-76
2022/08/29 06:58:45;;;;;;;15.97;11.17;;;20.10;45.00;;;;;;10539719;28;20291;-76
2022/08/29 07:03:52;;;;;;;15.33;9.97;;;20.20;44.90;;;;;;10539327;28;20253;-77
2022/08/29 07:08:56;;;;;;;15.77;9.77;;;20.20;45.70;;;;;;10539142;28;20242;-77
2022/08/29 07:14:01;;;;;;;10.93;10.03;;;20.20;45.40;;;;;;10538512;28;20265;-77
2022/08/29 07:19:07;;;;;;;11.80;10.30;;;20.20;45.60;;;;;;10538602;28;20223;-77
2022/08/29 07:30:15;;;;;;;11.60;10.43;;;20.30;47.20;;;;;;10536865;28;20224;-77
2022/08/29 07:35:20;;;;;;;12.47;11.13;;;20.40;45.90;;;;;;10537864;28;20224;-77
2022/08/29 07:40:32;;;;;;;10.53;9.63;;;20.40;46.90;;;;;;10537923;28;20339;-77
2022/08/29 07:45:38;;;;;;;12.20;11.10;;;20.50;45.70;;;;;;10538204;28;20228;-77
2022/08/29 07:50:43;;;;;;;12.47;11.33;;;20.50;46.70;;;;;;10537767;28;20240;-77
2022/08/29 07:55:46;;;;;;;11.57;10.50;;;20.60;46.60;;;;;;10537791;28;20227;-76
2022/08/29 08:00:49;;;;;;;12.47;11.37;;;20.60;46.00;;;;;;10537699;28;20321;-77
2022/08/29 08:05:54;;;;;;;13.40;12.20;;;20.70;46.20;;;;;;10538009;28;20223;-76
2022/08/29 08:10:57;;;;;;;13.57;12.37;;;20.80;47.40;;;;;;10537268;28;20232;-76
2022/08/29 08:16:04;;;;;;;13.80;12.60;;;20.90;46.50;;;;;;10537242;28;20235;-77
2022/08/29 08:21:09;;;;;;;13.90;12.57;;;20.90;47.60;;;;;;10537034;28;20233;-77
2022/08/29 08:26:14;;;;;;;15.10;13.80;;;21.00;47.50;;;;;;10536464;28;20233;-77
2022/08/29 08:31:18;;;;;;;13.27;12.07;;;21.10;47.40;;;;;;10537036;28;20672;-76
2022/08/29 08:36:27;;;;;;;13.87;12.70;;;21.10;46.80;;;;;;10536934;28;20239;-76
2022/08/29 08:41:44;;;;;;;15.00;13.67;;;21.20;47.70;;;;;;10536009;28;20318;-77
2022/08/29 08:46:51;;;;;;;15.93;14.60;;;21.30;48.40;;;;;;10537135;28;20233;-77
2022/08/29 08:52:02;;;;;;;15.43;14.13;;;21.50;47.90;;;;;;10536804;28;20239;-76
2022/08/29 08:57:07;;;;;;;14.50;13.20;;;21.60;48.40;;;;;;10536013;28;20237;-76
2022/08/29 09:02:18;;;;;;;13.43;12.33;;;21.70;47.50;;;;;;10537109;28;20310;-76
2022/08/29 09:07:41;;;;;;;14.53;13.23;;;21.90;48.30;;;;;;10536750;28;20238;-77
2022/08/29 09:12:57;;;;;;;14.20;12.90;;;22.00;49.00;;;;;;10537148;28;20239;-77
2022/08/29 09:18:05;;;;;;;14.60;13.33;;;22.10;48.40;;;;;;10536964;28;20231;-78
2022/08/29 09:23:16;;;;;;;14.20;13.00;;;22.30;48.00;;;;;;10537083;28;20227;-76
2022/08/29 09:28:19;;;;;;;14.77;13.47;;;22.40;48.00;;;;;;10536748;28;20245;-77
2022/08/29 09:33:22;;;;;;;14.90;13.60;;;22.60;47.30;;;;;;10536683;28;20302;-78
2022/08/29 09:38:27;;;;;;;13.60;12.47;;;22.70;47.20;;;;;;10536479;28;20285;-76
2022/08/29 09:43:46;;;;;;;14.00;12.70;;;22.80;47.30;;;;;;10536536;28;20231;-78
2022/08/29 09:48:54;;;;;;;12.57;11.57;;;23.00;47.90;;;;;;10536589;28;20228;-76
2022/08/29 09:54:14;;;;;;;11.53;10.63;;;23.30;47.50;;;;;;10536278;28;20424;-77
2022/08/29 09:59:26;;;;;;;13.30;12.17;;;23.60;47.60;;;;;;10536959;28;20223;-78
2022/08/29 10:04:37;;;;;;;11.60;10.63;;;23.90;47.10;;;;;;10532868;28;20236;-77
2022/08/29 10:09:54;;;;;;;12.67;11.63;;;24.20;46.30;;;;;;10537772;28;20228;-77
2022/08/29 10:15:03;;;;;;;12.60;11.37;;;24.30;46.30;;;;;;10544160;28;20289;-77
2022/08/29 10:20:10;;;;;;;13.37;12.27;;;24.50;45.90;;;;;;10560379;28;20229;-78
2022/08/29 10:25:19;;;;;;;13.30;12.20;;;24.60;45.40;;;;;;10585907;28;20234;-76
2022/08/29 10:30:27;;;;;;;13.00;11.90;;;24.70;45.00;;;;;;10585360;28;20238;-77
2022/08/29 10:35:36;;;;;;;11.80;10.83;;;24.90;45.20;;;;;;10585621;28;20227;-77
2022/08/29 10:40:46;;;;;;;13.10;12.00;;;25.10;45.00;;;;;;10585316;28;20231;-76
2022/08/29 10:46:17;;;;;;;13.00;11.80;;;25.30;44.50;;;;;;10586127;28;20275;-77
2022/08/29 10:51:28;;;;;;;11.60;10.60;;;25.40;44.30;;;;;;10584854;28;20231;-78
2022/08/29 10:56:39;;;;;;;10.47;9.57;;;25.70;43.40;;;;;;10585756;28;20610;-77
2022/08/29 11:01:48;;;;;;;8.67;7.97;;;25.70;42.20;;;;;;10584914;28;20318;-78
2022/08/29 11:06:58;;;;;;;9.13;8.33;;;25.80;42.30;;;;;;10584519;28;20702;-78
2022/08/29 11:12:10;;;;;;;7.60;7.00;;;25.80;41.40;;;;;;10584488;28;20237;-77
2022/08/29 11:17:24;;;;;;;7.60;6.83;;;25.90;41.50;;;;;;10584575;28;20234;-78
2022/08/29 11:22:33;;;;;;;7.00;6.50;;;26.00;41.60;;;;;;10584609;28;20222;-77
2022/08/29 11:27:46;;;;;;;7.70;7.20;;;26.00;41.60;;;;;;10583234;28;20229;-78
2022/08/29 11:33:02;;;;;;;6.70;6.07;;;26.10;41.00;;;;;;10584018;28;20834;-78
2022/08/29 11:38:39;;;;;;;5.97;5.57;;;26.30;39.60;;;;;;10583903;28;20234;-76
2022/08/29 11:43:47;;;;;;;7.20;6.50;;;26.40;40.40;;;;;;10583176;28;20227;-77
2022/08/29 11:48:53;;;;;;;6.13;5.63;;;26.60;39.40;;;;;;10581803;28;20312;-75
2022/08/29 11:54:39;;;;;;;6.23;5.73;;;26.80;40.10;;;;;;10573992;28;20284;-77
2022/08/29 11:59:59;;;;;;;6.73;5.90;;;26.90;38.80;;;;;;10583108;28;20750;-76
2022/08/29 12:05:05;;;;;;;5.70;5.30;;;27.00;39.00;;;;;;10579950;28;20753;-74
2022/08/29 12:10:13;;;;;;;5.70;5.20;;;27.10;38.20;;;;;;10573239;28;20579;-75
2022/08/29 12:15:55;;;;;;;6.10;5.60;;;27.20;36.90;;;;;;10573073;28;20239;-75
2022/08/29 12:21:01;;;;;;;4.93;4.53;;;27.30;38.60;;;;;;10572849;28;20582;-75
2022/08/29 12:32:37;;;;;;;5.47;5.07;;;27.60;37.10;;;;;;10533502;28;20223;-75
2022/08/29 12:37:59;;;;;;;5.80;5.30;;;27.70;36.20;;;;;;10574997;28;20257;-75
2022/08/29 12:43:25;;;;;;;5.70;5.20;;;27.80;35.50;;;;;;10571653;28;20255;-76
2022/08/29 12:48:36;;;;;;;4.50;4.20;;;27.80;35.70;;;;;;10572044;28;20733;-75
2022/08/29 12:53:48;;;;;;;4.40;4.10;;;27.90;34.90;;;;;;10571994;28;20234;-75
2022/08/29 12:58:56;;;;;;;4.73;4.33;;;28.10;35.00;;;;;;10571649;28;20241;-75
2022/08/29 13:04:02;;;;;;;5.63;4.70;;;28.20;33.20;;;;;;10571680;28;20249;-76
2022/08/29 13:09:08;;;;;;;5.50;5.10;;;28.20;33.80;;;;;;10571023;28;20237;-75
2022/08/29 13:14:20;;;;;;;4.40;4.10;;;28.30;33.80;;;;;;10571379;28;20238;-75
2022/08/29 13:19:24;;;;;;;4.63;4.23;;;28.30;34.40;;;;;;10571127;28;20229;-74
2022/08/29 13:24:28;;;;;;;4.67;4.37;;;28.30;33.80;;;;;;10571107;28;20714;-74
2022/08/29 13:29:37;;;;;;;4.27;3.87;;;28.30;33.30;;;;;;10570807;28;20223;-75
2022/08/29 13:35:02;;;;;;;5.93;4.20;;;28.40;32.40;;;;;;10570908;28;20256;-75
2022/08/29 13:40:31;;;;;;;4.87;4.33;;;28.40;32.30;;;;;;10570549;28;20237;-75
2022/08/29 13:45:35;;;;;;;4.50;4.10;;;28.50;32.20;;;;;;10573051;28;20317;-73
2022/08/29 13:50:38;;;;;;;4.30;4.00;;;28.50;32.00;;;;;;10578913;28;20233;-75
2022/08/29 13:55:43;;;;;;;3.90;3.60;;;28.50;31.80;;;;;;10578566;28;20347;-76
2022/08/29 14:00:47;;;;;;;4.13;3.77;;;28.50;30.50;;;;;;10578475;28;20239;-75
2022/08/29 14:05:52;;;;;;;4.60;4.27;;;28.60;30.80;;;;;;10578143;28;20250;-75
2022/08/29 14:10:57;;;;;;;4.03;3.73;;;28.70;30.60;;;;;;10577790;28;20231;-74
2022/08/29 14:16:00;;;;;;;4.27;3.97;;;28.80;30.00;;;;;;10578051;28;20760;-75
2022/08/29 14:21:04;;;;;;;4.00;3.60;;;28.80;30.70;;;;;;10577697;28;20707;-75
2022/08/29 14:26:08;;;;;;;4.20;3.80;;;28.80;30.60;;;;;;10577379;28;20731;-75
2022/08/29 14:31:12;;;;;;;4.00;3.70;;;28.80;29.30;;;;;;10577599;28;20233;-74
2022/08/29 14:36:15;;;;;;;4.00;3.80;;;28.80;30.10;;;;;;10577222;28;20232;-75
2022/08/29 14:41:20;;;;;;;4.10;3.70;;;28.80;30.20;;;;;;10577004;28;20574;-75
2022/08/29 14:46:23;;;;;;;4.47;4.17;;;28.90;29.80;;;;;;10577103;28;20231;-75
2022/08/29 14:51:26;;;;;;;4.40;4.10;;;29.00;29.80;;;;;;10576835;28;20230;-75
2022/08/29 14:56:33;;;;;;;4.40;4.10;;;29.10;30.30;;;;;;10575664;28;20729;-75
2022/08/29 15:01:51;;;;;;;4.37;4.03;;;29.10;29.10;;;;;;10576226;28;20231;-73
2022/08/29 15:06:57;;;;;;;5.03;4.63;;;29.20;29.90;;;;;;10580359;28;20272;-77
2022/08/29 15:12:04;;;;;;;4.90;4.60;;;29.20;29.40;;;;;;10583839;28;20227;-77
2022/08/29 15:17:07;;;;;;;5.30;4.90;;;29.30;28.40;;;;;;10580818;28;20310;-75
2022/08/29 15:22:12;;;;;;;5.27;4.77;;;29.30;28.80;;;;;;10575454;28;20749;-74
2022/08/29 15:27:17;;;;;;;4.87;4.47;;;29.30;29.10;;;;;;10575200;28;20241;-75
2022/08/29 15:32:26;;;;;;;4.53;4.23;;;29.30;28.10;;;;;;10575254;28;20754;-76
2022/08/29 15:37:29;;;;;;;5.13;4.73;;;29.30;28.20;;;;;;10575187;28;20227;-76
2022/08/29 15:42:34;;;;;;;5.23;4.83;;;29.30;28.80;;;;;;10574595;28;20235;-75
2022/08/29 15:47:38;;;;;;;4.77;4.33;;;29.40;28.20;;;;;;10574338;28;20242;-75
2022/08/29 15:52:41;;;;;;;4.77;4.47;;;29.40;28.50;;;;;;10574033;28;20234;-76
2022/08/29 15:57:46;;;;;;;4.83;4.40;;;29.40;28.60;;;;;;10573886;28;20226;-75
2022/08/29 16:02:54;;;;;;;5.10;4.70;;;29.50;28.00;;;;;;10573737;28;20710;-74
2022/08/29 16:07:58;;;;;;;4.97;4.67;;;29.40;28.10;;;;;;10572558;28;20223;-75
2022/08/29 16:13:04;;;;;;;4.50;4.20;;;29.40;28.20;;;;;;10573087;28;20337;-76
2022/08/29 16:18:07;;;;;;;4.67;4.27;;;29.40;27.50;;;;;;10573266;28;20234;-74
2022/08/29 16:23:10;;;;;;;4.87;4.47;;;29.30;28.10;;;;;;10573072;28;20621;-75
2022/08/29 16:28:15;;;;;;;4.70;4.30;;;29.30;28.20;;;;;;10572625;28;20596;-74
2022/08/29 16:33:21;;;;;;;4.90;4.60;;;29.30;27.60;;;;;;10572712;28;20246;-76
2022/08/29 16:38:24;;;;;;;5.17;4.77;;;29.30;27.30;;;;;;10570496;28;20227;-75
2022/08/29 16:43:28;;;;;;;4.90;4.50;;;29.30;28.50;;;;;;10571793;28;20598;-76
2022/08/29 16:48:32;;;;;;;4.50;4.20;;;29.30;27.70;;;;;;10571819;28;20234;-76
2022/08/29 16:53:36;;;;;;;4.90;4.40;;;29.40;28.00;;;;;;10571657;28;20261;-76
2022/08/29 16:59:00;;;;;;;4.80;4.40;;;29.30;27.70;;;;;;10571522;28;20235;-76
2022/08/29 17:04:05;;;;;;;4.43;4.00;;;29.30;27.20;;;;;;10571413;28;20314;-76
2022/08/29 17:19:16;;;;;;;4.60;4.30;;;29.00;27.50;;;;;;10573074;28;20235;-75
2022/08/29 17:24:19;;;;;;;4.50;4.20;;;28.90;28.10;;;;;;10579789;28;20241;-76
2022/08/29 17:29:24;;;;;;;4.70;4.40;;;28.80;28.30;;;;;;10579723;28;20229;-76
2022/08/29 17:34:27;;;;;;;4.07;3.83;;;28.70;28.20;;;;;;10579405;28;20226;-76
2022/08/29 17:39:31;;;;;;;4.70;4.17;;;28.70;28.60;;;;;;10579153;28;20235;-75
2022/08/29 17:44:37;;;;;;;4.90;4.50;;;28.60;28.70;;;;;;10578910;28;20248;-75
2022/08/29 17:49:41;;;;;;;5.23;4.70;;;28.60;28.90;;;;;;10579040;28;20231;-74
2022/08/29 17:54:46;;;;;;;4.93;4.53;;;28.50;29.40;;;;;;10579056;28;20250;-75
2022/08/29 17:59:51;;;;;;;9.53;5.87;;;28.40;29.40;;;;;;10578630;28;20238;-75
2022/08/29 18:04:54;;;;;;;7.40;5.30;;;28.30;29.50;;;;;;10578126;28;20237;-77
2022/08/29 18:09:58;;;;;;;5.27;4.87;;;28.20;29.70;;;;;;10578156;28;20219;-77
2022/08/29 18:15:04;;;;;;;5.00;4.60;;;28.10;29.60;;;;;;10578038;28;20237;-75
2022/08/29 18:20:10;;;;;;;5.90;4.80;;;27.90;29.60;;;;;;10577574;28;20235;-76
2022/08/29 18:25:13;;;;;;;4.83;4.53;;;27.70;29.90;;;;;;10577338;28;20777;-76
2022/08/29 18:30:26;;;;;;;5.47;5.07;;;27.60;30.00;;;;;;10576211;28;20226;-77
2022/08/29 18:35:30;;;;;;;5.50;5.00;;;27.40;29.90;;;;;;10577186;28;20253;-76
2022/08/29 18:40:33;;;;;;;5.27;4.87;;;27.20;29.80;;;;;;10576784;28;20596;-77
2022/08/29 18:45:42;;;;;;;5.10;4.70;;;27.00;29.90;;;;;;10576434;28;20223;-77
2022/08/29 18:50:47;;;;;;;4.90;4.60;;;26.90;30.20;;;;;;10576523;28;20757;-77
2022/08/29 18:55:51;;;;;;;4.87;4.47;;;26.80;30.10;;;;;;10576153;28;20246;-77
2022/08/29 19:00:56;;;;;;;5.20;4.80;;;26.70;30.50;;;;;;10576004;28;20234;-75
2022/08/29 19:05:59;;;;;;;4.67;4.37;;;26.60;30.70;;;;;;10575776;28;20609;-77
2022/08/29 19:11:05;;;;;;;5.50;5.00;;;26.50;30.60;;;;;;10575421;28;20227;-75
2022/08/29 19:16:09;;;;;;;6.80;6.30;;;26.40;30.70;;;;;;10575491;28;20249;-76
2022/08/29 19:21:13;;;;;;;6.87;6.33;;;26.40;30.80;;;;;;10574942;28;20276;-77
2022/08/29 19:26:18;;;;;;;7.43;6.83;;;26.20;30.60;;;;;;10575069;28;20218;-76
2022/08/29 19:31:23;;;;;;;7.20;6.50;;;25.90;31.20;;;;;;10574722;28;20241;-77
2022/08/29 19:36:27;;;;;;;5.90;5.47;;;25.60;31.70;;;;;;10574707;28;20231;-76
2022/08/29 19:41:30;;;;;;;6.77;6.17;;;25.30;31.80;;;;;;10574050;28;20329;-75
2022/08/29 19:46:35;;;;;;;7.00;6.50;;;25.20;32.10;;;;;;10574313;28;20606;-76
2022/08/29 19:51:40;;;;;;;7.03;6.43;;;25.10;32.60;;;;;;10574073;28;20235;-76
2022/08/29 19:56:43;;;;;;;5.97;5.43;;;24.90;32.70;;;;;;10565371;28;20223;-75
2022/08/29 20:01:50;;;;;;;6.40;5.90;;;24.80;32.60;;;;;;10573544;28;20234;-74
2022/08/29 20:06:53;;;;;;;6.93;6.33;;;24.70;33.20;;;;;;10573534;28;20310;-76
2022/08/29 20:12:02;;;;;;;7.20;6.67;;;24.70;33.20;;;;;;10572895;28;20231;-77
2022/08/29 20:17:07;;;;;;;6.87;6.37;;;24.60;33.20;;;;;;10573082;28;20226;-76
2022/08/29 20:22:11;;;;;;;7.37;6.77;;;24.50;33.70;;;;;;10572917;28;20249;-75
2022/08/29 20:27:14;;;;;;;7.50;7.00;;;24.30;33.60;;;;;;10572576;28;20253;-76
2022/08/29 20:32:19;;;;;;;7.70;6.97;;;24.20;33.60;;;;;;10572501;28;20227;-74
2022/08/29 20:37:24;;;;;;;7.40;6.80;;;24.00;34.40;;;;;;10572274;28;20234;-76
2022/08/29 20:42:29;;;;;;;7.40;6.80;;;23.80;34.20;;;;;;10572098;28;20231;-76
2022/08/29 20:47:33;;;;;;;7.60;7.07;;;23.60;34.50;;;;;;10572022;28;20227;-76
2022/08/29 20:52:37;;;;;;;7.30;6.70;;;23.60;35.30;;;;;;10571898;28;20223;-75
2022/08/29 20:57:40;;;;;;;7.77;7.07;;;23.50;34.90;;;;;;10571173;28;20238;-75
2022/08/29 21:08:06;;;;;;;6.97;6.30;;;23.50;35.50;;;;;;10571548;28;20704;-76
2022/08/29 21:13:09;;;;;;;7.67;6.97;;;23.40;35.20;;;;;;10571359;28;20239;-76
2022/08/29 21:18:16;;;;;;;7.83;7.17;;;23.30;35.30;;;;;;10571334;28;20605;-76
2022/08/29 21:23:24;;;;;;;6.80;6.30;;;23.30;36.00;;;;;;10571522;28;20234;-77
2022/08/29 21:28:28;;;;;;;6.10;5.60;;;23.30;35.70;;;;;;10571110;28;20223;-76
2022/08/29 21:33:36;;;;;;;7.07;6.57;;;23.20;35.50;;;;;;10571082;28;20238;-76
2022/08/29 21:38:39;;;;;;;7.37;6.77;;;23.20;36.20;;;;;;10570683;28;20238;-76
2022/08/29 21:43:43;;;;;;;6.77;6.13;;;23.20;35.50;;;;;;10570809;28;20262;-76
2022/08/29 21:48:49;;;;;;;6.83;6.33;;;23.30;35.60;;;;;;10570648;28;20242;-76
2022/08/29 21:53:59;;;;;;;6.33;5.83;;;23.20;36.00;;;;;;10570614;28;20887;-76
2022/08/29 21:59:03;;;;;;;6.37;5.77;;;23.20;35.50;;;;;;10570532;28;20234;-77
2022/08/29 22:04:13;;;;;;;7.10;6.60;;;23.20;35.30;;;;;;10570663;28;20235;-75
2022/08/29 22:09:30;;;;;;;8.47;6.87;;;23.10;36.00;;;;;;10577291;28;20230;-76
2022/08/29 22:19:55;;;;;;;5.83;5.43;;;23.00;35.30;;;;;;10577999;28;20237;-76
2022/08/29 22:24:58;;;;;;;7.43;6.87;;;22.90;35.60;;;;;;10577629;28;20230;-76
2022/08/29 22:30:02;;;;;;;6.27;5.77;;;22.80;35.50;;;;;;10577509;28;20635;-76
2022/08/29 22:35:10;;;;;;;7.87;7.17;;;22.70;35.70;;;;;;10577126;28;20237;-76
2022/08/29 22:40:18;;;;;;;7.93;7.23;;;22.60;36.40;;;;;;10576899;28;20231;-76
2022/08/29 22:45:21;;;;;;;8.03;7.23;;;22.50;36.60;;;;;;10576403;28;20780;-76
2022/08/29 22:50:26;;;;;;;7.73;6.73;;;22.30;35.80;;;;;;10576822;28;20233;-76
2022/08/29 22:55:30;;;;;;;7.50;6.40;;;22.10;37.20;;;;;;10568016;28;20239;-75
2022/08/29 23:00:32;;;;;;;8.10;6.80;;;22.00;36.70;;;;;;10534305;28;20806;-76
2022/08/29 23:05:37;;;;;;;8.07;7.27;;;22.00;36.60;;;;;;10534088;28;20235;-77
2022/08/29 23:10:40;;;;;;;6.87;6.27;;;22.00;37.20;;;;;;10533730;28;20605;-76
2022/08/29 23:15:43;;;;;;;6.50;6.00;;;22.00;36.50;;;;;;10533856;28;20231;-74
2022/08/29 23:20:48;;;;;;;6.67;6.17;;;22.00;36.70;;;;;;10530224;28;20314;-76
2022/08/29 23:25:51;;;;;;;6.73;6.10;;;22.00;36.90;;;;;;10531896;28;20269;-76
2022/08/29 23:30:56;;;;;;;6.40;5.90;;;22.00;36.70;;;;;;10533035;28;20707;-76
2022/08/29 23:36:01;;;;;;;6.80;6.30;;;22.00;36.60;;;;;;10532750;28;20230;-76
2022/08/29 23:41:04;;;;;;;7.23;6.73;;;22.00;37.00;;;;;;10532194;28;20235;-75
2022/08/29 23:46:08;;;;;;;7.20;6.60;;;22.00;36.70;;;;;;10532498;28;20238;-76
2022/08/29 23:51:13;;;;;;;7.60;6.90;;;22.00;36.70;;;;;;10532371;28;20285;-76
2022/08/29 23:56:19;;;;;;;7.57;6.90;;;21.90;37.10;;;;;;10532012;28;20778;-76
